createdAt,value
2022-10-21T00:00:52.572Z,98096.94
2022-10-21T00:03:20.653Z,98105.41
2022-10-21T00:05:48.589Z,98104.13
2022-10-21T00:08:16.402Z,98092.66
2022-10-21T00:10:43.600Z,98083.16
2022-10-21T00:13:11.369Z,98074.91
2022-10-21T00:15:38.382Z,98084.28
2022-10-21T00:18:05.296Z,98094.34
2022-10-21T00:20:34.767Z,98083.16
2022-10-21T00:23:04.313Z,98093.94
2022-10-21T00:25:31.214Z,98095.72
2022-10-21T00:27:58.127Z,98094.63
2022-10-21T00:30:25.103Z,98106.63
2022-10-21T00:32:52.066Z,98106.78
2022-10-21T00:35:18.955Z,98106.31
2022-10-21T00:37:45.863Z,98106.91
2022-10-21T00:40:12.868Z,98117.91
2022-10-21T00:42:44.076Z,98123.34
2022-10-21T00:45:22.314Z,98119.03
2022-10-21T00:48:01.341Z,98106.19
2022-10-21T00:50:57.208Z,98107.91
2022-10-21T00:53:25.306Z,98093.22
2022-10-21T00:56:00.635Z,98096.72
2022-10-21T00:58:31.517Z,98099.50
2022-10-21T01:01:01.979Z,98098.66
2022-10-21T01:03:31.232Z,98101.59
2022-10-21T01:06:02.703Z,98101.59
2022-10-21T01:08:30.290Z,98100.34
2022-10-21T01:10:58.530Z,98098.81
2022-10-21T01:13:48.607Z,98091.53
2022-10-21T01:16:23.540Z,98093.53
2022-10-21T01:19:15.922Z,98092.63
2022-10-21T01:21:48.571Z,98093.06
2022-10-21T01:25:04.357Z,98112.16
2022-10-21T01:27:58.011Z,98103.66
2022-10-21T01:30:37.225Z,98107.41
2022-10-21T01:33:41.287Z,98096.72
2022-10-21T01:36:18.219Z,98082.22
2022-10-21T01:39:13.400Z,98094.78
2022-10-21T01:42:10.995Z,98097.53
2022-10-21T01:45:06.548Z,98094.19
2022-10-21T01:47:38.754Z,98107.44
2022-10-21T01:50:12.811Z,98097.53
2022-10-21T01:52:44.058Z,98099.94
2022-10-21T01:55:16.662Z,98085.81
2022-10-21T01:57:52.972Z,98082.34
2022-10-21T02:00:20.315Z,98076.34
2022-10-21T02:02:49.596Z,98075.81
2022-10-21T02:05:22.286Z,98079.00
2022-10-21T02:07:50.128Z,98082.34
2022-10-21T02:10:19.183Z,98089.06
2022-10-21T02:12:49.481Z,98094.63
2022-10-21T02:15:18.337Z,98095.31
2022-10-21T02:17:54.436Z,98092.78
2022-10-21T02:20:25.047Z,98080.28
2022-10-21T02:22:52.108Z,98075.22
2022-10-21T02:25:26.870Z,98082.22
2022-10-21T02:27:54.882Z,98074.09
2022-10-21T02:30:22.049Z,98063.25
2022-10-21T02:33:15.292Z,98054.03
2022-10-21T02:36:14.383Z,98033.81
2022-10-21T02:38:50.012Z,98026.56
2022-10-21T02:41:22.465Z,98020.81
2022-10-21T02:44:00.684Z,98013.69
2022-10-21T02:46:37.697Z,97997.38
2022-10-21T02:49:04.642Z,97991.03
2022-10-21T02:51:31.724Z,97988.97
2022-10-21T02:53:58.965Z,97989.53
2022-10-21T02:56:26.661Z,97982.59
2022-10-21T02:58:54.156Z,97991.22
2022-10-21T03:01:21.164Z,97990.78
2022-10-21T03:03:48.105Z,97991.06
2022-10-21T03:06:15.066Z,97977.34
2022-10-21T03:08:42.002Z,97980.81
2022-10-21T03:11:08.930Z,97965.72
2022-10-21T03:13:36.061Z,97960.50
2022-10-21T03:16:03.074Z,97957.97
2022-10-21T03:18:29.990Z,97952.19
2022-10-21T03:20:56.956Z,97938.06
2022-10-21T03:23:23.903Z,97928.41
2022-10-21T03:25:50.901Z,97924.81
2022-10-21T03:28:20.217Z,97927.63
2022-10-21T03:30:47.121Z,97923.63
2022-10-21T03:33:14.025Z,97928.13
2022-10-21T03:35:40.968Z,97918.47
2022-10-21T03:38:08.054Z,97918.91
2022-10-21T03:40:34.963Z,97911.09
2022-10-21T03:43:01.922Z,97905.41
2022-10-21T03:45:28.925Z,97911.19
2022-10-21T03:47:56.107Z,97912.53
2022-10-21T03:50:25.965Z,97918.63
2022-10-21T03:52:55.029Z,97919.91
2022-10-21T03:55:24.226Z,97923.31
2022-10-21T03:57:52.025Z,97914.59
2022-10-21T04:00:19.402Z,97905.66
2022-10-21T04:02:46.543Z,97896.25
2022-10-21T04:05:13.554Z,97895.50
2022-10-21T04:07:40.954Z,97902.78
2022-10-21T04:10:08.739Z,97896.09
2022-10-21T04:12:36.250Z,97885.19
2022-10-21T04:15:05.485Z,97887.47
2022-10-21T04:17:32.402Z,97892.72
2022-10-21T04:19:59.300Z,97896.19
2022-10-21T04:22:26.234Z,97891.91
2022-10-21T04:24:53.152Z,97882.75
2022-10-21T04:27:20.048Z,97875.78
2022-10-21T04:29:46.970Z,97876.84
2022-10-21T04:32:13.878Z,97884.56
2022-10-21T04:34:40.797Z,97883.53
2022-10-21T04:37:07.730Z,97868.72
2022-10-21T04:39:34.718Z,97871.06
2022-10-21T04:42:01.633Z,97872.56
2022-10-21T04:44:28.602Z,97867.25
2022-10-21T04:46:55.728Z,97861.81
2022-10-21T04:49:22.692Z,97859.06
2022-10-21T04:51:49.664Z,97863.00
2022-10-21T04:54:16.736Z,97859.28
2022-10-21T04:56:43.660Z,97870.28
2022-10-21T04:59:11.312Z,97870.88
2022-10-21T05:01:38.217Z,97872.16
2022-10-21T05:04:05.220Z,97861.50
2022-10-21T05:06:32.241Z,97861.75
2022-10-21T05:08:59.213Z,97867.75
2022-10-21T05:11:26.318Z,97875.47
2022-10-21T05:13:53.226Z,97874.41
2022-10-21T05:16:20.154Z,97876.94
2022-10-21T05:18:47.117Z,97881.81
2022-10-21T05:21:14.009Z,97882.53
2022-10-21T05:23:41.393Z,97882.59
2022-10-21T05:26:08.337Z,97884.19
2022-10-21T05:28:35.278Z,97895.31
2022-10-21T05:31:02.319Z,97889.50
2022-10-21T05:33:29.299Z,97888.50
2022-10-21T05:36:02.404Z,97876.22
2022-10-21T05:38:29.810Z,97872.34
2022-10-21T05:40:57.644Z,97884.81
2022-10-21T05:43:25.293Z,97886.91
2022-10-21T05:45:52.293Z,97889.81
2022-10-21T05:48:19.790Z,97891.41
2022-10-21T05:50:48.007Z,97888.53
2022-10-21T05:53:15.042Z,97892.47
2022-10-21T05:55:41.981Z,97891.25
2022-10-21T05:58:09.050Z,97896.06
2022-10-21T06:00:36.165Z,97894.59
2022-10-21T06:03:03.206Z,97896.88
2022-10-21T06:05:30.174Z,97888.16
2022-10-21T06:07:57.150Z,97897.00
2022-10-21T06:10:28.242Z,97902.47
2022-10-21T06:12:56.165Z,97908.31
2022-10-21T06:15:23.111Z,97906.19
2022-10-21T06:17:51.685Z,97911.75
2022-10-21T06:20:18.880Z,97913.69
2022-10-21T06:22:45.848Z,97909.16
2022-10-21T06:25:12.850Z,97912.63
2022-10-21T06:27:40.096Z,97912.63
2022-10-21T06:30:08.010Z,97914.41
2022-10-21T06:32:35.699Z,97913.19
2022-10-21T06:35:02.901Z,97914.78
2022-10-21T06:37:29.862Z,97911.78
2022-10-21T06:39:56.914Z,97910.91
2022-10-21T06:42:23.891Z,97911.16
2022-10-21T06:44:52.725Z,97914.31
2022-10-21T06:47:21.415Z,97919.25
2022-10-21T06:49:48.334Z,97919.03
2022-10-21T06:52:15.365Z,97935.56
2022-10-21T06:54:42.407Z,97920.41
2022-10-21T06:57:09.331Z,97925.75
2022-10-21T06:59:36.285Z,97924.00
2022-10-21T07:02:03.281Z,97926.03
2022-10-21T07:04:30.428Z,97931.53
2022-10-21T07:06:57.624Z,97943.00
2022-10-21T07:09:24.602Z,97938.91
2022-10-21T07:11:51.586Z,97945.47
2022-10-21T07:14:18.539Z,97938.00
2022-10-21T07:16:45.478Z,97950.47
2022-10-21T07:19:12.483Z,97964.75
2022-10-21T07:21:39.407Z,97970.13
2022-10-21T07:24:06.825Z,97979.25
2022-10-21T07:26:35.192Z,97978.47
2022-10-21T07:29:02.242Z,97975.31
2022-10-21T07:31:34.078Z,97966.41
2022-10-21T07:36:39.346Z,97960.50
2022-10-21T07:39:11.559Z,97941.78
2022-10-21T07:41:46.060Z,97937.66
2022-10-21T07:44:13.326Z,97911.38
2022-10-21T07:46:43.089Z,97886.63
2022-10-21T07:49:12.116Z,97891.97
2022-10-21T07:51:39.685Z,97889.97
2022-10-21T07:54:08.309Z,97883.38
2022-10-21T07:56:41.440Z,97898.72
2022-10-21T07:59:12.797Z,97917.84
2022-10-21T08:01:44.342Z,97918.66
2022-10-21T08:04:16.192Z,97903.03
2022-10-21T08:06:45.445Z,97900.25
2022-10-21T08:09:13.439Z,97917.34
2022-10-21T08:11:40.689Z,97944.13
2022-10-21T08:14:09.942Z,97955.25
2022-10-21T08:16:37.218Z,97950.34
2022-10-21T08:19:05.241Z,97947.38
2022-10-21T08:21:32.302Z,97941.13
2022-10-21T08:24:02.169Z,97933.66
2022-10-21T08:26:29.140Z,97933.00
2022-10-21T08:28:56.063Z,97922.00
2022-10-21T08:31:23.430Z,97909.84
2022-10-21T08:33:50.845Z,97913.00
2022-10-21T08:36:26.046Z,97914.00
2022-10-21T08:38:54.531Z,97916.81
2022-10-21T08:41:30.515Z,97917.34
2022-10-21T08:44:22.108Z,97909.03
2022-10-21T08:47:45.176Z,97901.88
2022-10-21T08:50:17.109Z,97888.63
2022-10-21T08:52:49.787Z,97893.59
2022-10-21T08:55:21.637Z,97894.25
2022-10-21T08:57:50.842Z,97872.13
2022-10-21T09:00:21.751Z,97855.13
2022-10-21T09:02:58.008Z,97863.44
2022-10-21T09:06:14.825Z,97867.75
2022-10-21T09:08:57.888Z,97873.13
2022-10-21T09:12:02.404Z,97871.63
2022-10-21T09:14:58.537Z,97888.16
2022-10-21T09:17:53.377Z,97876.50
2022-10-21T09:20:56.708Z,97908.31
2022-10-21T09:23:53.202Z,97940.44
2022-10-21T09:26:42.942Z,97962.44
2022-10-21T09:29:38.869Z,97974.72
2022-10-21T09:32:38.114Z,97950.41
2022-10-21T09:35:23.721Z,97953.19
2022-10-21T09:37:55.434Z,97951.84
2022-10-21T09:40:30.373Z,97958.97
2022-10-21T09:42:59.624Z,97994.41
2022-10-21T09:45:36.101Z,97975.63
2022-10-21T09:48:18.292Z,97978.50
2022-10-21T09:51:05.245Z,97983.22
2022-10-21T09:53:39.121Z,97976.91
2022-10-21T09:56:49.560Z,97988.06
2022-10-21T09:59:21.233Z,97993.19
2022-10-21T10:01:49.205Z,97978.91
2022-10-21T10:04:34.681Z,97974.72
2022-10-21T10:07:27.240Z,97975.75
2022-10-21T10:09:54.280Z,97978.44
2022-10-21T10:12:24.801Z,97980.78
2022-10-21T10:14:52.002Z,97993.63
2022-10-21T10:17:32.192Z,98000.78
2022-10-21T10:20:05.033Z,97999.81
2022-10-21T10:23:04.859Z,98003.84
2022-10-21T10:25:35.568Z,98002.88
2022-10-21T10:28:09.853Z,98013.53
2022-10-21T10:30:48.064Z,98016.38
2022-10-21T10:33:24.676Z,98007.03
2022-10-21T10:35:58.471Z,98010.56
2022-10-21T10:38:52.794Z,98011.53
2022-10-21T10:41:20.142Z,98007.72
2022-10-21T10:43:53.681Z,97994.84
2022-10-21T10:46:34.059Z,97999.03
2022-10-21T10:49:15.435Z,98003.03
2022-10-21T10:51:48.114Z,98009.19
2022-10-21T10:54:28.552Z,98006.84
2022-10-21T10:57:13.567Z,98011.00
2022-10-21T10:59:55.641Z,98008.84
2022-10-21T11:02:48.248Z,98005.19
2022-10-21T11:05:33.952Z,98002.53
2022-10-21T11:08:11.993Z,97999.03
2022-10-21T11:10:53.563Z,97988.50
2022-10-21T11:13:24.064Z,97988.88
2022-10-21T11:15:59.900Z,97989.66
2022-10-21T11:18:57.910Z,97988.66
2022-10-21T11:21:46.986Z,97987.63
2022-10-21T11:24:51.042Z,97985.47
2022-10-21T11:28:02.754Z,97980.31
2022-10-21T11:31:15.820Z,97988.16
2022-10-21T11:34:13.848Z,97988.16
2022-10-21T11:36:50.011Z,97988.47
2022-10-21T11:39:47.998Z,97993.00
2022-10-21T11:42:37.749Z,97988.88
2022-10-21T11:45:37.642Z,97969.19
2022-10-21T11:48:24.476Z,97969.66
2022-10-21T11:51:00.326Z,97965.31
2022-10-21T11:53:50.973Z,97970.97
2022-10-21T11:56:26.758Z,97969.31
2022-10-21T11:59:26.390Z,97954.56
2022-10-21T12:02:21.181Z,97965.25
2022-10-21T12:05:21.888Z,97960.97
2022-10-21T12:08:03.202Z,97968.72
2022-10-21T12:10:44.215Z,97963.94
2022-10-21T12:13:27.038Z,97962.75
2022-10-21T12:16:13.494Z,97964.56
2022-10-21T12:19:05.504Z,97959.53
2022-10-21T12:21:43.655Z,97962.59
2022-10-21T12:24:29.039Z,97965.97
2022-10-21T12:27:18.946Z,97960.13
2022-10-21T12:30:08.433Z,97960.00
2022-10-21T12:33:06.693Z,97958.53
2022-10-21T12:35:57.404Z,97954.03
2022-10-21T12:38:48.343Z,97967.50
2022-10-21T12:41:24.573Z,97965.78
2022-10-21T12:44:02.792Z,97970.63
2022-10-21T12:46:40.578Z,97966.78
2022-10-21T12:49:24.060Z,97973.06
2022-10-21T12:52:02.538Z,97972.50
2022-10-21T12:54:48.879Z,97965.84
2022-10-21T12:57:28.761Z,97973.34
2022-10-21T13:00:27.832Z,97976.41
2022-10-21T13:03:05.086Z,97966.78
2022-10-21T13:05:38.017Z,97970.16
2022-10-21T13:08:23.125Z,97973.56
2022-10-21T13:11:05.292Z,97974.91
2022-10-21T13:13:38.733Z,97970.44
2022-10-21T13:16:21.161Z,97973.63
2022-10-21T13:18:54.002Z,97968.94
2022-10-21T13:21:33.969Z,97970.25
2022-10-21T13:24:13.484Z,97967.56
2022-10-21T13:26:57.327Z,97979.72
2022-10-21T13:29:48.277Z,97962.66
2022-10-21T13:32:15.223Z,97955.97
2022-10-21T13:35:20.970Z,97964.00
2022-10-21T13:38:22.051Z,97958.97
2022-10-21T13:41:04.669Z,97953.59
2022-10-21T13:43:49.632Z,97957.25
2022-10-21T13:46:26.814Z,97954.44
2022-10-21T13:48:54.353Z,97959.72
2022-10-21T13:51:22.642Z,97965.56
2022-10-21T13:53:54.222Z,97967.44
2022-10-21T13:56:47.521Z,97957.97
2022-10-21T13:59:28.831Z,97960.34
2022-10-21T14:01:58.064Z,97953.69
2022-10-21T14:04:32.044Z,97956.41
2022-10-21T14:07:06.467Z,97957.59
2022-10-21T14:09:44.809Z,97963.16
2022-10-21T14:12:34.375Z,97959.97
2022-10-21T14:15:19.134Z,97966.00
2022-10-21T14:17:55.063Z,97955.63
2022-10-21T14:20:35.506Z,97961.19
2022-10-21T14:23:05.957Z,97960.34
2022-10-21T14:25:33.485Z,97958.50
2022-10-21T14:28:03.627Z,97949.72
2022-10-21T14:30:33.685Z,97949.22
2022-10-21T14:33:04.880Z,97948.38
2022-10-21T14:35:32.340Z,97950.53
2022-10-21T14:38:03.031Z,97946.69
2022-10-21T14:40:41.545Z,97943.03
2022-10-21T14:43:21.400Z,97942.53
2022-10-21T14:45:52.245Z,97956.38
2022-10-21T14:48:36.372Z,97950.72
2022-10-21T14:51:16.547Z,97947.84
2022-10-21T14:54:02.205Z,97953.38
2022-10-21T14:56:42.870Z,97940.56
2022-10-21T14:59:41.835Z,97926.34
2022-10-21T15:02:22.034Z,97934.72
2022-10-21T15:04:53.477Z,97933.06
2022-10-21T15:07:39.037Z,97924.75
2022-10-21T15:10:05.904Z,97936.72
2022-10-21T15:13:00.451Z,97957.09
2022-10-21T15:15:52.551Z,97961.47
2022-10-21T15:18:29.621Z,97961.63
2022-10-21T15:21:03.506Z,97938.47
2022-10-21T15:23:53.930Z,97944.66
2022-10-21T15:26:34.775Z,97942.81
2022-10-21T15:29:22.928Z,97950.81
2022-10-21T15:31:49.908Z,97940.16
2022-10-21T15:34:16.917Z,97933.50
2022-10-21T15:36:44.238Z,97936.81
2022-10-21T15:39:11.968Z,97933.00
2022-10-21T15:41:39.884Z,97939.66
2022-10-21T15:44:18.759Z,97933.69
2022-10-21T15:46:47.104Z,97939.34
2022-10-21T15:49:23.248Z,97938.53
2022-10-21T15:51:51.333Z,97937.00
2022-10-21T15:54:19.987Z,97940.69
2022-10-21T15:56:51.481Z,97938.53
2022-10-21T15:59:30.997Z,97948.19
2022-10-21T16:01:59.115Z,97942.50
2022-10-21T16:04:27.030Z,97945.38
2022-10-21T16:06:54.748Z,97931.34
2022-10-21T16:09:26.230Z,97930.03
2022-10-21T16:12:00.791Z,97922.88
2022-10-21T16:14:30.561Z,97930.00
2022-10-21T16:16:59.259Z,97930.16
2022-10-21T16:19:26.595Z,97932.34
2022-10-21T16:21:53.827Z,97926.84
2022-10-21T16:24:21.006Z,97929.00
2022-10-21T16:26:49.458Z,97931.31
2022-10-21T16:29:24.931Z,97937.00
2022-10-21T16:31:52.530Z,97939.66
2022-10-21T16:34:20.330Z,97946.19
2022-10-21T16:36:47.384Z,97940.16
2022-10-21T16:39:17.982Z,97945.50
2022-10-21T16:41:45.206Z,97949.50
2022-10-21T16:44:12.342Z,97950.31
2022-10-21T16:46:42.383Z,97952.00
2022-10-21T16:49:15.341Z,97945.47
2022-10-21T16:51:48.622Z,97955.31
2022-10-21T16:54:16.588Z,97965.97
2022-10-21T16:56:43.515Z,97966.94
2022-10-21T16:59:10.439Z,97953.63
2022-10-21T17:01:37.986Z,97949.50
2022-10-21T17:04:05.274Z,97943.97
2022-10-21T17:06:32.282Z,97941.31
2022-10-21T17:08:59.282Z,97954.78
2022-10-21T17:11:36.552Z,97950.31
2022-10-21T17:14:06.623Z,97959.09
2022-10-21T17:16:33.887Z,97952.31
2022-10-21T17:19:00.873Z,97956.28
2022-10-21T17:21:31.606Z,97966.09
2022-10-21T17:24:01.663Z,97961.75
2022-10-21T17:26:33.929Z,97953.22
2022-10-21T17:29:00.936Z,97953.84
2022-10-21T17:31:30.627Z,97949.66
2022-10-21T17:34:06.315Z,97951.19
2022-10-21T17:36:37.429Z,97945.50
2022-10-21T17:39:05.635Z,97944.19
2022-10-21T17:41:32.646Z,97943.91
2022-10-21T17:44:01.723Z,97946.41
2022-10-21T17:46:28.904Z,97951.84
2022-10-21T17:48:57.673Z,97950.44
2022-10-21T17:51:25.447Z,97952.03
2022-10-21T17:53:54.456Z,97955.09
2022-10-21T17:56:22.569Z,97957.88
2022-10-21T17:58:57.003Z,97958.56
2022-10-21T18:01:25.358Z,97959.53
2022-10-21T18:03:53.472Z,97956.09
2022-10-21T18:06:21.121Z,97952.88
2022-10-21T18:08:48.497Z,97944.53
2022-10-21T18:11:18.682Z,97935.75
2022-10-21T18:13:46.410Z,97938.09
2022-10-21T18:16:18.915Z,97936.78
2022-10-21T18:18:46.903Z,97934.91
2022-10-21T18:21:21.227Z,97934.03
2022-10-21T18:23:52.306Z,97921.19
2022-10-21T18:26:25.423Z,97922.91
2022-10-21T18:28:59.523Z,97914.25
2022-10-21T18:31:29.877Z,97906.84
2022-10-21T18:33:57.945Z,97902.34
2022-10-21T18:36:25.325Z,97895.44
2022-10-21T18:38:52.629Z,97906.63
2022-10-21T18:41:21.161Z,97903.78
2022-10-21T18:44:01.195Z,97906.16
2022-10-21T18:46:29.720Z,97904.38
2022-10-21T18:48:57.805Z,97896.19
2022-10-21T18:51:25.008Z,97915.31
2022-10-21T18:53:53.169Z,97901.78
2022-10-21T18:56:22.861Z,97903.31
2022-10-21T18:58:51.222Z,97907.47
2022-10-21T19:01:20.183Z,97911.44
2022-10-21T19:03:47.763Z,97913.16
2022-10-21T19:06:46.121Z,97913.16
2022-10-21T19:09:21.103Z,97917.44
2022-10-21T19:11:48.571Z,97924.78
2022-10-21T19:14:16.375Z,97914.44
2022-10-21T19:16:45.366Z,97905.50
2022-10-21T19:19:13.645Z,97910.88
2022-10-21T19:21:40.586Z,97921.47
2022-10-21T19:24:08.401Z,97930.28
2022-10-21T19:26:37.274Z,97930.38
2022-10-21T19:29:09.987Z,97939.50
2022-10-21T19:31:38.589Z,97940.56
2022-10-21T19:34:07.173Z,97946.84
2022-10-21T19:36:35.007Z,97942.47
2022-10-21T19:39:01.991Z,97941.72
2022-10-21T19:41:28.945Z,97944.41
2022-10-21T19:44:00.595Z,97949.94
2022-10-21T19:46:30.474Z,97950.81
2022-10-21T19:48:57.753Z,97958.34
2022-10-21T19:51:26.183Z,97958.28
2022-10-21T19:53:54.439Z,97958.34
2022-10-21T19:56:26.223Z,97964.72
2022-10-21T19:58:54.285Z,97967.38
2022-10-21T20:01:25.767Z,97957.53
2022-10-21T20:03:54.049Z,97960.66
2022-10-21T20:06:31.503Z,97963.06
2022-10-21T20:09:02.256Z,97961.91
2022-10-21T20:11:30.037Z,97961.88
2022-10-21T20:13:58.121Z,97958.78
2022-10-21T20:16:32.003Z,97965.28
2022-10-21T20:19:01.686Z,97962.56
2022-10-21T20:21:30.707Z,97964.78
2022-10-21T20:23:59.212Z,97968.53
2022-10-21T20:26:26.737Z,97971.19
2022-10-21T20:28:53.825Z,97972.88
2022-10-21T20:31:21.137Z,97974.56
2022-10-21T20:33:50.757Z,97974.09
2022-10-21T20:36:28.153Z,97976.63
2022-10-21T20:38:57.551Z,97968.03
2022-10-21T20:41:36.001Z,97977.84
2022-10-21T20:44:06.657Z,97976.88
2022-10-21T20:46:35.981Z,97982.69
2022-10-21T20:49:05.913Z,97987.09
2022-10-21T20:51:33.100Z,97992.03
2022-10-21T20:54:07.454Z,97984.31
2022-10-21T20:56:38.196Z,97984.59
2022-10-21T20:59:07.038Z,97993.84
2022-10-21T21:01:41.552Z,97982.75
2022-10-21T21:04:13.526Z,97988.81
2022-10-21T21:06:44.036Z,97987.84
2022-10-21T21:09:37.587Z,97984.69
2022-10-21T21:14:31.036Z,97995.38
2022-10-21T21:16:58.092Z,97999.88
2022-10-21T21:19:25.737Z,98006.66
2022-10-21T21:21:53.215Z,97995.47
2022-10-21T21:24:20.470Z,98004.69
2022-10-21T21:26:47.464Z,98011.22
2022-10-21T21:29:14.937Z,98017.34
2022-10-21T21:31:42.831Z,98021.22
2022-10-21T21:34:10.738Z,98010.53
2022-10-21T21:36:38.046Z,98020.84
2022-10-21T21:39:07.232Z,98031.94
2022-10-21T21:41:34.931Z,98026.63
2022-10-21T21:44:01.877Z,98030.00
2022-10-21T21:46:28.831Z,98044.41
2022-10-21T21:49:02.315Z,98041.19
2022-10-21T21:51:32.880Z,98048.28
2022-10-21T21:54:00.285Z,98051.66
2022-10-21T21:56:28.163Z,98056.25
2022-10-21T21:58:57.684Z,98055.38
2022-10-21T22:01:27.702Z,98061.06
2022-10-21T22:03:55.701Z,98061.34
2022-10-21T22:08:53.926Z,98060.66
2022-10-21T22:11:25.004Z,98073.66
2022-10-21T22:13:52.403Z,98074.00
2022-10-21T22:16:22.042Z,98065.00
2022-10-21T22:18:49.386Z,98066.47
2022-10-21T22:21:18.659Z,98067.59
2022-10-21T22:23:47.359Z,98068.28
2022-10-21T22:26:16.923Z,98069.34
2022-10-21T22:28:44.716Z,98065.25
2022-10-21T22:31:15.060Z,98072.19
2022-10-21T22:36:10.766Z,98076.50
2022-10-21T22:38:37.786Z,98064.28
2022-10-21T22:41:08.608Z,98049.94
2022-10-21T22:43:39.177Z,98041.09
2022-10-21T22:46:21.425Z,98046.41
2022-10-21T22:48:48.973Z,98055.44
2022-10-21T22:51:15.935Z,98061.16
2022-10-21T22:53:42.882Z,98066.56
2022-10-21T22:56:09.920Z,98063.44
2022-10-21T22:58:36.945Z,98068.59
2022-10-21T23:01:09.671Z,98068.28
2022-10-21T23:03:36.958Z,98068.75
2022-10-21T23:06:04.802Z,98062.00
2022-10-21T23:08:31.913Z,98057.28
2022-10-21T23:10:58.960Z,98059.88
2022-10-21T23:13:26.386Z,98068.16
2022-10-21T23:15:53.388Z,98068.03
2022-10-21T23:18:20.315Z,98075.00
2022-10-21T23:20:47.310Z,98071.00
2022-10-21T23:23:14.326Z,98069.78
2022-10-21T23:25:41.257Z,98069.84
2022-10-21T23:28:11.057Z,98072.91
2022-10-21T23:30:38.612Z,98073.16
2022-10-21T23:33:05.611Z,98078.41
2022-10-21T23:35:32.889Z,98067.38
2022-10-21T23:37:59.878Z,98079.16
2022-10-21T23:40:27.993Z,98083.22
2022-10-21T23:42:55.147Z,98087.31
2022-10-21T23:45:22.083Z,98088.84
2022-10-21T23:47:49.228Z,98083.28
2022-10-21T23:50:16.546Z,98077.06
2022-10-21T23:52:43.586Z,98068.94
2022-10-21T23:55:10.733Z,98063.25
2022-10-21T23:57:37.919Z,98067.88
